Connexion S'enregistrer

Connexion à votre compte

Identifiant
Mot de passe
Maintenir la connexion active sur ce site

Créer un compte

Pour valider ce formulaire, vous devez remplir tous les champs.
Nom
Identifiant
Mot de passe
Répétez le mot de passe
Adresse e-mail
Répétez l'adresse e-mail

Veuillez saisir l'adresse e-mail associée à votre compte d'utilisateur. Votre identifiant vous sera envoyé à cette adresse.

Nous contacter

 Téléphone : +33 (0)4 79 54 41 81

Coordonnées détaillées et accès : cliquez ici

 
LFLB °C
    Ferienhaus Ostsee
[source: ADDS]
METAR
LFLB 211100Z AUTO 25006KT 170V300 9999 FEW072 BKN100 15/05 Q1017 NOSIG =
TAF LFLB 210500Z 2106/2206 VRB02KT CAVOK BECMG 2109/2111 02007KT BECMG 2117/2119 VRB02KT
TAF
TAF LFLB 210500Z 2106/2206 VRB02KT CAVOK BECMG 2109/2111 02007KT BECMG 2117/2119 VRB02KT =
SR / SS: 04:40 / 18:29 UTC (Lever/Coucher du soleil le 2019-04-21)
JSN Boot template designed by JoomlaShine.com